Scf Explorer — WDE2863 — position and weather

sailwx.info

Track history (hours):
 
Tides and Currents Weather Stations Pressure Air Temp Water Temp Dewpoint Dewpoint Depression Visibility Wind Speed Wind Dir Waves Ship Positions

Scf Explorer

Owner: SCF Waxler Marine LLC, St Rose, LA. More information available from US FCC via Universal Licensing System and Coast Guard Vessel Documentation Center.

Last reported at 2014-Oct-21 09:32 UTC. Time now 2014-Oct-21 10:31 UTC.
Position N 29°46' W 095°06'.

Length 35 m; draft 2.3 m.

Type: Ship (hazmat cat B). MMSI: 367330620.

Date/timePositionNaut miles runAvg speedWind from/ knotsBaromVisibWave heightAir tempDewpointWater temp
2014-Oct-21 09:32N 29°46' W 095°06'0 0.0
2014-Oct-21 08:33N 29°46' W 095°06'0 0.1
2014-Oct-21 07:30N 29°46' W 095°06'2 2.4
2014-Oct-21 06:33N 29°47' W 095°04'0 0.0
2014-Oct-21 05:33N 29°47' W 095°04'1 0.7
2014-Oct-21 04:16N 29°47' W 095°05'0 0.0
2014-Oct-21 03:33N 29°47' W 095°05'3 2.7
2014-Oct-21 02:34N 29°44' W 095°03'5 5.3
2014-Oct-21 01:34N 29°41' W 094°59'6 6.2
2014-Oct-21 00:34N 29°35' W 094°56'  
2014-Oct-18 20:14N 29°22' W 094°48'3 0.1
2014-Oct-17 06:31N 29°22' W 094°51'  
Track history (hours):
 
Tides and Currents Weather Stations Pressure Air Temp Water Temp Dewpoint Dewpoint Depression Visibility Wind Speed Wind Dir Waves Ship Positions

Scf Explorer

Owner: SCF Waxler Marine LLC, St Rose, LA. More information available from US FCC via Universal Licensing System and Coast Guard Vessel Documentation Center.

Last reported at 2014-Oct-21 09:32 UTC. Time now 2014-Oct-21 10:31 UTC.
Position N 29°46' W 095°06'.

Length 35 m; draft 2.3 m.

Type: Ship (hazmat cat B). MMSI: 367330620.

Date/timePositionNaut miles runAvg speedWind from/ knotsBaromVisibWave heightAir tempDewpointWater temp
2014-Oct-21 09:32N 29°46' W 095°06'0 0.0
2014-Oct-21 08:33N 29°46' W 095°06'0 0.1
2014-Oct-21 07:30N 29°46' W 095°06'2 2.4
2014-Oct-21 06:33N 29°47' W 095°04'0 0.0
2014-Oct-21 05:33N 29°47' W 095°04'1 0.7
2014-Oct-21 04:16N 29°47' W 095°05'0 0.0
2014-Oct-21 03:33N 29°47' W 095°05'3 2.7
2014-Oct-21 02:34N 29°44' W 095°03'5 5.3
2014-Oct-21 01:34N 29°41' W 094°59'6 6.2
2014-Oct-21 00:34N 29°35' W 094°56'  
2014-Oct-18 20:14N 29°22' W 094°48'3 0.1
2014-Oct-17 06:31N 29°22' W 094°51'  

Dump ship's entire track history